Accueil
METAR-TAF:

METAR-TAF

Aéroports :

Aéroport international de Recife

Recife, Pernambouc, Brésil

latitude: 08-08S, longitude: 034-55W, altitude: 19 m

Observation

Le bulletin a été fait il y a 6 minutes, à 02:00 UTC
Vent 5 kt de est
Température 27°C
Humidité 74%
Pression 1012 hPa
Visibilité 10 km ou plus
Nuages épars à une hauteur de 2200 ft

METAR: SBRF 180200Z 08005KT 9999 SCT022 27/22 Q1012

Heure: 23:06 (02:06 UTC)

Prévision

Le bulletin a été fait il y a 4 heures et 6 minutes, à 22:00 UTC
Prévision valable du 18 à 00 UTC au 18 à 24 UTC
Vent 10 kt de est
Visibilité 10 km ou plus
Nuages épars à une hauteur de 2500 ft
Evoluant progressivement
du 18 à 03 UTC au 18 à 05 UTC
Vent 8 kt de est/nord-est
Evoluant progressivement
du 18 à 14 UTC au 18 à 16 UTC
Vent 10 kt de est

TAF: SBRF 172200Z 1800/1824 09010KT 9999 SCT025 TN26/1805Z TX30/1814Z BECMG 1803/1805 06008KT BECMG 1814/1816 10010KT RMK PFM

Observations et prévisions météorologiques de plus de 4000 aéroports (messages METAR et TAF).

Les stations disponibles sont représentées par des disques jaunes et rouges sur la carte.

Passer la souris dessus pour voir le nom de la station.

Cliquer dessus pour voir les observations et prévisions météorologiques.

Pour changer de carte: cliquez sur les boutons verts avec une croix noire pour zoomer, sur le bouton vert avec un tiret pour effectuer un zoom arrière, ou sur les flèches vertes pour les cartes adjacentes.


METAR-TAF: